sensor_id;sensor_type;location;lat;lon;timestamp;P1;durP1;ratioP1;P2;durP2;ratioP2
16612;SDS011;8419;52.358;9.752;2023-04-16T00:02:03;22.77;;;14.77;;
16612;SDS011;8419;52.358;9.752;2023-04-16T00:04:49;21.77;;;14.90;;
16612;SDS011;8419;52.358;9.752;2023-04-16T00:07:36;19.62;;;14.45;;
16612;SDS011;8419;52.358;9.752;2023-04-16T00:10:22;21.83;;;14.45;;
16612;SDS011;8419;52.358;9.752;2023-04-16T00:13:08;20.70;;;14.70;;
16612;SDS011;8419;52.358;9.752;2023-04-16T00:15:53;21.00;;;14.15;;
16612;SDS011;8419;52.358;9.752;2023-04-16T00:18:39;24.55;;;15.20;;
16612;SDS011;8419;52.358;9.752;2023-04-16T00:21:24;22.75;;;15.02;;
16612;SDS011;8419;52.358;9.752;2023-04-16T00:24:11;19.85;;;15.23;;
16612;SDS011;8419;52.358;9.752;2023-04-16T00:26:56;19.67;;;15.13;;
16612;SDS011;8419;52.358;9.752;2023-04-16T00:29:43;19.25;;;14.35;;
16612;SDS011;8419;52.358;9.752;2023-04-16T00:32:29;25.42;;;15.50;;
16612;SDS011;8419;52.358;9.752;2023-04-16T00:35:15;25.20;;;15.65;;
16612;SDS011;8419;52.358;9.752;2023-04-16T00:38:02;23.12;;;16.45;;
16612;SDS011;8419;52.358;9.752;2023-04-16T00:40:47;21.98;;;15.55;;
16612;SDS011;8419;52.358;9.752;2023-04-16T00:43:33;24.17;;;16.70;;
16612;SDS011;8419;52.358;9.752;2023-04-16T00:46:19;24.80;;;16.15;;
16612;SDS011;8419;52.358;9.752;2023-04-16T00:49:06;23.10;;;16.87;;
16612;SDS011;8419;52.358;9.752;2023-04-16T00:51:53;21.90;;;15.32;;
16612;SDS011;8419;52.358;9.752;2023-04-16T00:54:39;25.52;;;16.55;;
16612;SDS011;8419;52.358;9.752;2023-04-16T00:57:24;26.17;;;16.52;;
16612;SDS011;8419;52.358;9.752;2023-04-16T01:00:11;24.52;;;15.70;;
16612;SDS011;8419;52.358;9.752;2023-04-16T01:02:58;20.30;;;15.55;;
16612;SDS011;8419;52.358;9.752;2023-04-16T01:05:43;24.92;;;16.87;;
16612;SDS011;8419;52.358;9.752;2023-04-16T01:08:34;25.15;;;16.83;;
16612;SDS011;8419;52.358;9.752;2023-04-16T01:11:20;21.77;;;14.85;;
16612;SDS011;8419;52.358;9.752;2023-04-16T01:14:06;21.87;;;15.43;;
16612;SDS011;8419;52.358;9.752;2023-04-16T01:16:51;25.08;;;16.08;;
16612;SDS011;8419;52.358;9.752;2023-04-16T01:19:37;24.42;;;16.30;;
16612;SDS011;8419;52.358;9.752;2023-04-16T01:22:22;23.27;;;15.73;;
16612;SDS011;8419;52.358;9.752;2023-04-16T01:25:12;23.60;;;16.92;;
16612;SDS011;8419;52.358;9.752;2023-04-16T01:28:00;21.70;;;15.57;;
16612;SDS011;8419;52.358;9.752;2023-04-16T01:30:45;23.02;;;15.43;;
16612;SDS011;8419;52.358;9.752;2023-04-16T01:33:30;22.83;;;16.35;;
16612;SDS011;8419;52.358;9.752;2023-04-16T01:36:16;23.10;;;15.05;;
16612;SDS011;8419;52.358;9.752;2023-04-16T01:39:02;25.55;;;16.60;;
16612;SDS011;8419;52.358;9.752;2023-04-16T01:41:48;21.05;;;15.30;;
16612;SDS011;8419;52.358;9.752;2023-04-16T01:44:34;21.27;;;15.85;;
16612;SDS011;8419;52.358;9.752;2023-04-16T01:47:19;24.08;;;16.40;;
16612;SDS011;8419;52.358;9.752;2023-04-16T01:50:06;26.87;;;17.85;;
16612;SDS011;8419;52.358;9.752;2023-04-16T01:52:54;22.52;;;15.45;;
16612;SDS011;8419;52.358;9.752;2023-04-16T01:55:41;27.70;;;16.65;;
16612;SDS011;8419;52.358;9.752;2023-04-16T01:58:27;26.25;;;16.42;;
16612;SDS011;8419;52.358;9.752;2023-04-16T02:01:13;23.85;;;16.37;;
16612;SDS011;8419;52.358;9.752;2023-04-16T02:03:59;19.62;;;14.43;;
16612;SDS011;8419;52.358;9.752;2023-04-16T02:06:44;21.98;;;15.68;;
16612;SDS011;8419;52.358;9.752;2023-04-16T02:09:31;28.10;;;16.92;;
16612;SDS011;8419;52.358;9.752;2023-04-16T02:12:18;25.85;;;17.37;;
16612;SDS011;8419;52.358;9.752;2023-04-16T02:15:05;28.33;;;17.52;;
16612;SDS011;8419;52.358;9.752;2023-04-16T02:17:52;26.62;;;16.92;;
16612;SDS011;8419;52.358;9.752;2023-04-16T02:20:40;25.88;;;17.02;;
16612;SDS011;8419;52.358;9.752;2023-04-16T02:23:27;26.00;;;16.37;;
16612;SDS011;8419;52.358;9.752;2023-04-16T02:26:13;26.12;;;17.65;;
16612;SDS011;8419;52.358;9.752;2023-04-16T02:28:58;29.25;;;17.27;;
16612;SDS011;8419;52.358;9.752;2023-04-16T02:31:44;23.85;;;17.05;;
16612;SDS011;8419;52.358;9.752;2023-04-16T02:34:30;26.23;;;17.48;;
16612;SDS011;8419;52.358;9.752;2023-04-16T02:37:17;27.00;;;16.52;;
16612;SDS011;8419;52.358;9.752;2023-04-16T02:40:03;26.12;;;16.40;;
16612;SDS011;8419;52.358;9.752;2023-04-16T02:42:49;26.45;;;16.83;;
16612;SDS011;8419;52.358;9.752;2023-04-16T02:45:35;30.27;;;17.42;;
16612;SDS011;8419;52.358;9.752;2023-04-16T02:48:20;26.40;;;17.62;;
16612;SDS011;8419;52.358;9.752;2023-04-16T02:51:05;26.02;;;16.95;;
16612;SDS011;8419;52.358;9.752;2023-04-16T02:53:51;24.42;;;17.00;;
16612;SDS011;8419;52.358;9.752;2023-04-16T02:56:37;28.25;;;17.85;;
16612;SDS011;8419;52.358;9.752;2023-04-16T02:59:22;28.50;;;16.15;;
16612;SDS011;8419;52.358;9.752;2023-04-16T03:02:08;25.20;;;17.35;;
16612;SDS011;8419;52.358;9.752;2023-04-16T03:04:53;27.23;;;17.08;;
16612;SDS011;8419;52.358;9.752;2023-04-16T03:07:39;32.92;;;18.30;;
16612;SDS011;8419;52.358;9.752;2023-04-16T03:10:24;25.42;;;17.23;;
16612;SDS011;8419;52.358;9.752;2023-04-16T03:13:11;25.50;;;16.17;;
16612;SDS011;8419;52.358;9.752;2023-04-16T03:15:57;27.92;;;18.17;;
16612;SDS011;8419;52.358;9.752;2023-04-16T03:18:43;30.15;;;18.10;;
16612;SDS011;8419;52.358;9.752;2023-04-16T03:21:28;25.05;;;15.52;;
16612;SDS011;8419;52.358;9.752;2023-04-16T03:24:14;26.60;;;16.23;;
16612;SDS011;8419;52.358;9.752;2023-04-16T03:27:00;23.45;;;16.48;;
16612;SDS011;8419;52.358;9.752;2023-04-16T03:29:46;23.35;;;15.80;;
16612;SDS011;8419;52.358;9.752;2023-04-16T03:32:32;23.25;;;16.33;;
16612;SDS011;8419;52.358;9.752;2023-04-16T03:35:17;24.67;;;16.12;;
16612;SDS011;8419;52.358;9.752;2023-04-16T03:38:03;24.10;;;15.70;;
16612;SDS011;8419;52.358;9.752;2023-04-16T03:40:48;25.92;;;17.17;;
16612;SDS011;8419;52.358;9.752;2023-04-16T03:43:34;28.45;;;16.23;;
16612;SDS011;8419;52.358;9.752;2023-04-16T03:46:20;28.05;;;16.58;;
16612;SDS011;8419;52.358;9.752;2023-04-16T03:49:06;24.85;;;15.63;;
16612;SDS011;8419;52.358;9.752;2023-04-16T03:51:51;28.45;;;15.52;;
16612;SDS011;8419;52.358;9.752;2023-04-16T03:54:37;32.20;;;17.67;;
16612;SDS011;8419;52.358;9.752;2023-04-16T03:57:23;25.20;;;17.10;;
16612;SDS011;8419;52.358;9.752;2023-04-16T04:00:09;24.17;;;17.10;;
16612;SDS011;8419;52.358;9.752;2023-04-16T04:02:55;28.20;;;15.88;;
16612;SDS011;8419;52.358;9.752;2023-04-16T04:05:43;24.63;;;16.25;;
16612;SDS011;8419;52.358;9.752;2023-04-16T04:08:29;31.08;;;17.92;;
16612;SDS011;8419;52.358;9.752;2023-04-16T04:11:15;24.25;;;15.43;;
16612;SDS011;8419;52.358;9.752;2023-04-16T04:14:00;26.33;;;16.05;;
16612;SDS011;8419;52.358;9.752;2023-04-16T04:16:46;28.23;;;16.12;;
16612;SDS011;8419;52.358;9.752;2023-04-16T04:19:31;25.90;;;16.35;;
16612;SDS011;8419;52.358;9.752;2023-04-16T04:22:17;28.23;;;16.75;;
16612;SDS011;8419;52.358;9.752;2023-04-16T04:25:03;26.52;;;16.12;;
16612;SDS011;8419;52.358;9.752;2023-04-16T04:27:49;25.62;;;15.95;;
16612;SDS011;8419;52.358;9.752;2023-04-16T04:30:34;28.12;;;17.25;;
16612;SDS011;8419;52.358;9.752;2023-04-16T04:33:19;26.95;;;16.15;;
16612;SDS011;8419;52.358;9.752;2023-04-16T04:36:07;25.17;;;16.60;;
16612;SDS011;8419;52.358;9.752;2023-04-16T04:38:52;26.12;;;16.40;;
16612;SDS011;8419;52.358;9.752;2023-04-16T04:41:38;23.85;;;15.70;;
16612;SDS011;8419;52.358;9.752;2023-04-16T04:44:23;26.77;;;16.73;;
16612;SDS011;8419;52.358;9.752;2023-04-16T04:47:09;25.33;;;15.23;;
16612;SDS011;8419;52.358;9.752;2023-04-16T04:49:54;28.55;;;15.98;;
16612;SDS011;8419;52.358;9.752;2023-04-16T04:52:40;21.25;;;14.48;;
16612;SDS011;8419;52.358;9.752;2023-04-16T04:55:25;23.08;;;15.10;;
16612;SDS011;8419;52.358;9.752;2023-04-16T04:58:11;23.35;;;15.07;;
16612;SDS011;8419;52.358;9.752;2023-04-16T05:00:57;23.00;;;14.55;;
16612;SDS011;8419;52.358;9.752;2023-04-16T05:03:43;24.58;;;15.32;;
16612;SDS011;8419;52.358;9.752;2023-04-16T05:06:29;23.27;;;15.45;;
16612;SDS011;8419;52.358;9.752;2023-04-16T05:09:15;26.52;;;15.50;;
16612;SDS011;8419;52.358;9.752;2023-04-16T05:12:01;21.62;;;13.15;;
16612;SDS011;8419;52.358;9.752;2023-04-16T05:14:47;22.87;;;14.32;;
16612;SDS011;8419;52.358;9.752;2023-04-16T05:17:32;24.25;;;15.10;;
16612;SDS011;8419;52.358;9.752;2023-04-16T05:20:20;23.52;;;15.32;;
16612;SDS011;8419;52.358;9.752;2023-04-16T05:23:07;28.20;;;15.02;;
16612;SDS011;8419;52.358;9.752;2023-04-16T05:25:53;25.60;;;15.50;;
16612;SDS011;8419;52.358;9.752;2023-04-16T05:28:41;24.20;;;13.57;;
16612;SDS011;8419;52.358;9.752;2023-04-16T05:31:26;20.55;;;13.30;;
16612;SDS011;8419;52.358;9.752;2023-04-16T05:34:11;23.95;;;12.95;;
16612;SDS011;8419;52.358;9.752;2023-04-16T05:36:57;20.55;;;13.95;;
16612;SDS011;8419;52.358;9.752;2023-04-16T05:39:43;21.60;;;13.65;;
16612;SDS011;8419;52.358;9.752;2023-04-16T05:42:29;25.00;;;14.52;;
16612;SDS011;8419;52.358;9.752;2023-04-16T05:45:15;21.70;;;14.18;;
16612;SDS011;8419;52.358;9.752;2023-04-16T05:48:01;23.27;;;14.02;;
16612;SDS011;8419;52.358;9.752;2023-04-16T05:50:47;22.02;;;13.40;;
16612;SDS011;8419;52.358;9.752;2023-04-16T05:53:33;22.20;;;15.20;;
16612;SDS011;8419;52.358;9.752;2023-04-16T05:56:19;21.02;;;13.98;;
16612;SDS011;8419;52.358;9.752;2023-04-16T05:59:05;21.67;;;14.02;;
16612;SDS011;8419;52.358;9.752;2023-04-16T06:01:50;23.15;;;13.88;;
16612;SDS011;8419;52.358;9.752;2023-04-16T06:04:36;19.10;;;12.82;;
16612;SDS011;8419;52.358;9.752;2023-04-16T06:07:21;19.37;;;13.35;;
16612;SDS011;8419;52.358;9.752;2023-04-16T06:10:08;18.48;;;12.57;;
16612;SDS011;8419;52.358;9.752;2023-04-16T06:12:54;18.55;;;13.35;;
16612;SDS011;8419;52.358;9.752;2023-04-16T06:15:39;22.20;;;13.50;;
16612;SDS011;8419;52.358;9.752;2023-04-16T06:18:26;24.02;;;13.30;;
16612;SDS011;8419;52.358;9.752;2023-04-16T06:21:11;18.05;;;10.95;;
16612;SDS011;8419;52.358;9.752;2023-04-16T06:23:57;19.45;;;12.23;;
16612;SDS011;8419;52.358;9.752;2023-04-16T06:26:42;22.50;;;13.68;;
16612;SDS011;8419;52.358;9.752;2023-04-16T06:29:28;20.75;;;13.35;;
16612;SDS011;8419;52.358;9.752;2023-04-16T06:32:13;22.30;;;12.90;;
16612;SDS011;8419;52.358;9.752;2023-04-16T06:35:00;20.90;;;13.13;;
16612;SDS011;8419;52.358;9.752;2023-04-16T06:37:46;24.10;;;12.75;;
16612;SDS011;8419;52.358;9.752;2023-04-16T06:40:32;18.75;;;12.20;;
16612;SDS011;8419;52.358;9.752;2023-04-16T06:43:20;19.42;;;12.70;;
16612;SDS011;8419;52.358;9.752;2023-04-16T06:46:06;20.95;;;12.27;;
16612;SDS011;8419;52.358;9.752;2023-04-16T06:48:51;18.83;;;12.25;;
16612;SDS011;8419;52.358;9.752;2023-04-16T06:51:37;16.20;;;11.80;;
16612;SDS011;8419;52.358;9.752;2023-04-16T06:54:24;15.85;;;11.35;;
16612;SDS011;8419;52.358;9.752;2023-04-16T06:57:10;13.07;;;8.07;;
16612;SDS011;8419;52.358;9.752;2023-04-16T06:59:58;17.33;;;11.90;;
16612;SDS011;8419;52.358;9.752;2023-04-16T07:02:43;17.90;;;12.02;;
16612;SDS011;8419;52.358;9.752;2023-04-16T07:05:29;19.45;;;11.60;;
16612;SDS011;8419;52.358;9.752;2023-04-16T07:08:14;17.05;;;12.45;;
16612;SDS011;8419;52.358;9.752;2023-04-16T07:11:00;18.37;;;11.63;;
16612;SDS011;8419;52.358;9.752;2023-04-16T07:13:46;18.60;;;12.68;;
16612;SDS011;8419;52.358;9.752;2023-04-16T07:16:31;17.33;;;12.13;;
16612;SDS011;8419;52.358;9.752;2023-04-16T07:19:17;18.80;;;12.88;;
16612;SDS011;8419;52.358;9.752;2023-04-16T07:22:03;19.20;;;12.15;;
16612;SDS011;8419;52.358;9.752;2023-04-16T07:24:48;18.42;;;11.45;;
16612;SDS011;8419;52.358;9.752;2023-04-16T07:27:33;18.25;;;12.37;;
16612;SDS011;8419;52.358;9.752;2023-04-16T07:30:19;19.95;;;13.05;;
16612;SDS011;8419;52.358;9.752;2023-04-16T07:33:04;18.70;;;12.00;;
16612;SDS011;8419;52.358;9.752;2023-04-16T07:35:50;17.58;;;11.63;;
16612;SDS011;8419;52.358;9.752;2023-04-16T07:38:35;19.58;;;13.15;;
16612;SDS011;8419;52.358;9.752;2023-04-16T07:41:22;19.30;;;12.50;;
16612;SDS011;8419;52.358;9.752;2023-04-16T07:44:07;19.75;;;12.85;;
16612;SDS011;8419;52.358;9.752;2023-04-16T07:46:53;19.25;;;11.55;;
16612;SDS011;8419;52.358;9.752;2023-04-16T07:49:41;16.73;;;10.68;;
16612;SDS011;8419;52.358;9.752;2023-04-16T07:52:27;17.70;;;11.80;;
16612;SDS011;8419;52.358;9.752;2023-04-16T07:55:13;18.75;;;11.27;;
16612;SDS011;8419;52.358;9.752;2023-04-16T07:57:58;19.52;;;11.20;;
16612;SDS011;8419;52.358;9.752;2023-04-16T08:00:44;19.00;;;11.07;;
16612;SDS011;8419;52.358;9.752;2023-04-16T08:03:30;11.12;;;7.47;;
16612;SDS011;8419;52.358;9.752;2023-04-16T08:06:16;19.20;;;11.30;;
16612;SDS011;8419;52.358;9.752;2023-04-16T08:09:02;19.08;;;12.63;;
16612;SDS011;8419;52.358;9.752;2023-04-16T08:11:48;17.95;;;11.75;;
16612;SDS011;8419;52.358;9.752;2023-04-16T08:14:34;17.87;;;10.93;;
16612;SDS011;8419;52.358;9.752;2023-04-16T08:17:20;18.70;;;11.80;;
16612;SDS011;8419;52.358;9.752;2023-04-16T08:20:06;15.10;;;10.43;;
16612;SDS011;8419;52.358;9.752;2023-04-16T08:22:54;17.35;;;11.55;;
16612;SDS011;8419;52.358;9.752;2023-04-16T08:25:39;19.08;;;11.27;;
16612;SDS011;8419;52.358;9.752;2023-04-16T08:28:24;16.58;;;12.00;;
16612;SDS011;8419;52.358;9.752;2023-04-16T08:31:10;15.60;;;11.07;;
16612;SDS011;8419;52.358;9.752;2023-04-16T08:33:56;17.48;;;11.85;;
16612;SDS011;8419;52.358;9.752;2023-04-16T08:36:42;16.55;;;10.65;;
16612;SDS011;8419;52.358;9.752;2023-04-16T08:39:29;14.48;;;9.85;;
16612;SDS011;8419;52.358;9.752;2023-04-16T08:42:22;19.12;;;11.18;;
16612;SDS011;8419;52.358;9.752;2023-04-16T08:45:17;18.00;;;11.48;;
16612;SDS011;8419;52.358;9.752;2023-04-16T08:48:04;19.33;;;10.98;;
16612;SDS011;8419;52.358;9.752;2023-04-16T08:50:51;16.25;;;11.40;;
16612;SDS011;8419;52.358;9.752;2023-04-16T08:53:47;19.52;;;11.73;;
16612;SDS011;8419;52.358;9.752;2023-04-16T08:56:35;18.27;;;12.02;;
16612;SDS011;8419;52.358;9.752;2023-04-16T08:59:23;15.90;;;11.20;;
16612;SDS011;8419;52.358;9.752;2023-04-16T09:02:10;17.48;;;11.43;;
16612;SDS011;8419;52.358;9.752;2023-04-16T09:04:57;14.55;;;10.68;;
16612;SDS011;8419;52.358;9.752;2023-04-16T09:07:44;17.80;;;11.68;;
16612;SDS011;8419;52.358;9.752;2023-04-16T09:10:30;18.83;;;11.25;;
16612;SDS011;8419;52.358;9.752;2023-04-16T09:13:16;15.65;;;10.30;;
16612;SDS011;8419;52.358;9.752;2023-04-16T09:16:04;17.15;;;11.68;;
16612;SDS011;8419;52.358;9.752;2023-04-16T09:18:51;16.20;;;10.88;;
16612;SDS011;8419;52.358;9.752;2023-04-16T09:21:37;17.45;;;11.65;;
16612;SDS011;8419;52.358;9.752;2023-04-16T09:24:24;17.70;;;10.93;;
16612;SDS011;8419;52.358;9.752;2023-04-16T09:27:10;17.20;;;10.65;;
16612;SDS011;8419;52.358;9.752;2023-04-16T09:29:56;15.95;;;11.63;;
16612;SDS011;8419;52.358;9.752;2023-04-16T09:32:42;17.23;;;12.20;;
16612;SDS011;8419;52.358;9.752;2023-04-16T09:35:27;16.42;;;11.65;;
16612;SDS011;8419;52.358;9.752;2023-04-16T09:38:44;16.87;;;11.38;;
16612;SDS011;8419;52.358;9.752;2023-04-16T09:41:30;17.73;;;12.20;;
16612;SDS011;8419;52.358;9.752;2023-04-16T09:44:19;18.80;;;12.98;;
16612;SDS011;8419;52.358;9.752;2023-04-16T09:47:05;17.27;;;12.05;;
16612;SDS011;8419;52.358;9.752;2023-04-16T09:49:52;17.87;;;12.73;;
16612;SDS011;8419;52.358;9.752;2023-04-16T09:52:44;20.48;;;12.52;;
16612;SDS011;8419;52.358;9.752;2023-04-16T09:55:31;20.50;;;12.27;;
16612;SDS011;8419;52.358;9.752;2023-04-16T09:58:17;18.60;;;12.50;;
16612;SDS011;8419;52.358;9.752;2023-04-16T10:01:05;15.05;;;11.23;;
16612;SDS011;8419;52.358;9.752;2023-04-16T10:03:52;17.45;;;12.85;;
16612;SDS011;8419;52.358;9.752;2023-04-16T10:06:38;19.02;;;12.98;;
16612;SDS011;8419;52.358;9.752;2023-04-16T10:09:25;18.95;;;12.15;;
16612;SDS011;8419;52.358;9.752;2023-04-16T10:12:15;18.02;;;13.23;;
16612;SDS011;8419;52.358;9.752;2023-04-16T10:15:00;21.25;;;12.95;;
16612;SDS011;8419;52.358;9.752;2023-04-16T10:17:47;20.17;;;13.32;;
16612;SDS011;8419;52.358;9.752;2023-04-16T10:20:32;20.42;;;14.63;;
16612;SDS011;8419;52.358;9.752;2023-04-16T10:23:19;19.12;;;13.18;;
16612;SDS011;8419;52.358;9.752;2023-04-16T10:26:05;19.77;;;13.30;;
16612;SDS011;8419;52.358;9.752;2023-04-16T10:28:51;19.17;;;13.95;;
16612;SDS011;8419;52.358;9.752;2023-04-16T10:31:37;19.98;;;14.38;;
16612;SDS011;8419;52.358;9.752;2023-04-16T10:34:25;22.42;;;14.60;;
16612;SDS011;8419;52.358;9.752;2023-04-16T10:37:12;22.45;;;15.05;;
16612;SDS011;8419;52.358;9.752;2023-04-16T10:40:01;22.00;;;15.90;;
16612;SDS011;8419;52.358;9.752;2023-04-16T10:43:07;22.50;;;15.48;;
16612;SDS011;8419;52.358;9.752;2023-04-16T10:45:53;22.52;;;15.65;;
16612;SDS011;8419;52.358;9.752;2023-04-16T10:48:39;22.52;;;15.23;;
16612;SDS011;8419;52.358;9.752;2023-04-16T10:51:31;19.62;;;14.90;;
16612;SDS011;8419;52.358;9.752;2023-04-16T10:54:19;19.83;;;14.57;;
16612;SDS011;8419;52.358;9.752;2023-04-16T10:57:09;26.83;;;16.25;;
16612;SDS011;8419;52.358;9.752;2023-04-16T11:00:01;19.37;;;14.80;;
16612;SDS011;8419;52.358;9.752;2023-04-16T11:02:48;24.45;;;16.80;;
16612;SDS011;8419;52.358;9.752;2023-04-16T11:05:44;21.60;;;15.15;;
16612;SDS011;8419;52.358;9.752;2023-04-16T11:08:32;22.23;;;15.63;;
16612;SDS011;8419;52.358;9.752;2023-04-16T11:11:20;23.25;;;15.77;;
16612;SDS011;8419;52.358;9.752;2023-04-16T11:14:05;21.73;;;15.38;;
16612;SDS011;8419;52.358;9.752;2023-04-16T11:16:53;21.62;;;15.57;;
16612;SDS011;8419;52.358;9.752;2023-04-16T11:19:38;21.17;;;14.15;;
16612;SDS011;8419;52.358;9.752;2023-04-16T11:22:29;21.17;;;15.55;;
16612;SDS011;8419;52.358;9.752;2023-04-16T11:25:18;21.45;;;14.80;;
16612;SDS011;8419;52.358;9.752;2023-04-16T11:28:08;22.42;;;16.02;;
16612;SDS011;8419;52.358;9.752;2023-04-16T11:30:53;24.55;;;15.10;;
16612;SDS011;8419;52.358;9.752;2023-04-16T11:33:39;23.40;;;15.57;;
16612;SDS011;8419;52.358;9.752;2023-04-16T11:36:36;23.67;;;16.40;;
16612;SDS011;8419;52.358;9.752;2023-04-16T11:39:27;22.55;;;16.17;;
16612;SDS011;8419;52.358;9.752;2023-04-16T11:42:14;22.92;;;16.30;;
16612;SDS011;8419;52.358;9.752;2023-04-16T11:45:07;25.02;;;16.95;;
16612;SDS011;8419;52.358;9.752;2023-04-16T11:47:54;24.27;;;15.73;;
16612;SDS011;8419;52.358;9.752;2023-04-16T11:50:41;25.40;;;17.45;;
16612;SDS011;8419;52.358;9.752;2023-04-16T11:53:26;25.83;;;17.00;;
16612;SDS011;8419;52.358;9.752;2023-04-16T11:56:14;24.25;;;17.48;;
16612;SDS011;8419;52.358;9.752;2023-04-16T11:59:08;25.50;;;17.87;;
16612;SDS011;8419;52.358;9.752;2023-04-16T12:01:55;21.30;;;15.75;;
16612;SDS011;8419;52.358;9.752;2023-04-16T12:04:41;23.17;;;16.35;;
16612;SDS011;8419;52.358;9.752;2023-04-16T12:07:26;21.87;;;15.43;;
16612;SDS011;8419;52.358;9.752;2023-04-16T12:10:11;22.45;;;16.08;;
16612;SDS011;8419;52.358;9.752;2023-04-16T12:13:11;23.33;;;16.83;;
16612;SDS011;8419;52.358;9.752;2023-04-16T12:15:57;20.20;;;14.82;;
16612;SDS011;8419;52.358;9.752;2023-04-16T12:18:57;22.52;;;15.93;;
16612;SDS011;8419;52.358;9.752;2023-04-16T12:21:44;21.90;;;15.20;;
16612;SDS011;8419;52.358;9.752;2023-04-16T12:24:30;22.87;;;16.48;;
16612;SDS011;8419;52.358;9.752;2023-04-16T12:27:21;24.85;;;17.17;;
16612;SDS011;8419;52.358;9.752;2023-04-16T12:30:15;22.90;;;16.33;;
16612;SDS011;8419;52.358;9.752;2023-04-16T12:33:15;24.58;;;16.25;;
16612;SDS011;8419;52.358;9.752;2023-04-16T12:36:15;23.10;;;16.25;;
16612;SDS011;8419;52.358;9.752;2023-04-16T12:39:26;22.30;;;15.82;;
16612;SDS011;8419;52.358;9.752;2023-04-16T12:42:11;28.50;;;16.55;;
16612;SDS011;8419;52.358;9.752;2023-04-16T12:44:58;25.48;;;15.45;;
16612;SDS011;8419;52.358;9.752;2023-04-16T12:47:43;22.40;;;15.10;;
16612;SDS011;8419;52.358;9.752;2023-04-16T12:50:29;21.65;;;14.00;;
16612;SDS011;8419;52.358;9.752;2023-04-16T12:53:23;22.87;;;14.90;;
16612;SDS011;8419;52.358;9.752;2023-04-16T12:56:08;20.42;;;15.68;;
16612;SDS011;8419;52.358;9.752;2023-04-16T12:58:54;24.60;;;15.25;;
16612;SDS011;8419;52.358;9.752;2023-04-16T13:01:39;23.38;;;14.87;;
16612;SDS011;8419;52.358;9.752;2023-04-16T13:04:25;20.35;;;14.48;;
16612;SDS011;8419;52.358;9.752;2023-04-16T13:07:10;20.80;;;14.10;;
16612;SDS011;8419;52.358;9.752;2023-04-16T13:09:56;21.23;;;14.18;;
16612;SDS011;8419;52.358;9.752;2023-04-16T13:12:41;19.42;;;13.25;;
16612;SDS011;8419;52.358;9.752;2023-04-16T13:15:27;18.65;;;13.80;;
16612;SDS011;8419;52.358;9.752;2023-04-16T13:18:12;20.60;;;14.32;;
16612;SDS011;8419;52.358;9.752;2023-04-16T13:20:57;18.15;;;12.30;;
16612;SDS011;8419;52.358;9.752;2023-04-16T13:23:42;20.85;;;13.60;;
16612;SDS011;8419;52.358;9.752;2023-04-16T13:26:28;16.65;;;12.98;;
16612;SDS011;8419;52.358;9.752;2023-04-16T13:29:13;16.87;;;11.90;;
16612;SDS011;8419;52.358;9.752;2023-04-16T13:31:59;17.52;;;12.50;;
16612;SDS011;8419;52.358;9.752;2023-04-16T13:34:44;16.62;;;11.75;;
16612;SDS011;8419;52.358;9.752;2023-04-16T13:37:30;18.37;;;12.45;;
16612;SDS011;8419;52.358;9.752;2023-04-16T13:40:15;18.77;;;12.52;;
16612;SDS011;8419;52.358;9.752;2023-04-16T13:43:00;17.10;;;12.60;;
16612;SDS011;8419;52.358;9.752;2023-04-16T13:45:46;14.75;;;11.68;;
16612;SDS011;8419;52.358;9.752;2023-04-16T13:48:33;17.67;;;12.68;;
16612;SDS011;8419;52.358;9.752;2023-04-16T13:51:18;17.75;;;12.52;;
16612;SDS011;8419;52.358;9.752;2023-04-16T13:54:04;14.30;;;11.52;;
16612;SDS011;8419;52.358;9.752;2023-04-16T13:56:51;18.00;;;12.30;;
16612;SDS011;8419;52.358;9.752;2023-04-16T13:59:37;16.75;;;13.02;;
16612;SDS011;8419;52.358;9.752;2023-04-16T14:02:23;15.73;;;11.82;;
16612;SDS011;8419;52.358;9.752;2023-04-16T14:05:09;15.60;;;11.77;;
16612;SDS011;8419;52.358;9.752;2023-04-16T14:07:55;14.65;;;11.05;;
16612;SDS011;8419;52.358;9.752;2023-04-16T14:10:41;12.13;;;10.10;;
16612;SDS011;8419;52.358;9.752;2023-04-16T14:13:27;12.90;;;9.27;;
16612;SDS011;8419;52.358;9.752;2023-04-16T14:16:13;9.85;;;7.93;;
16612;SDS011;8419;52.358;9.752;2023-04-16T14:18:58;11.90;;;8.82;;
16612;SDS011;8419;52.358;9.752;2023-04-16T14:21:44;9.93;;;8.57;;
16612;SDS011;8419;52.358;9.752;2023-04-16T14:24:29;11.82;;;9.00;;
16612;SDS011;8419;52.358;9.752;2023-04-16T14:27:14;12.65;;;9.50;;
16612;SDS011;8419;52.358;9.752;2023-04-16T14:30:00;13.25;;;9.95;;
16612;SDS011;8419;52.358;9.752;2023-04-16T14:32:45;9.85;;;7.72;;
16612;SDS011;8419;52.358;9.752;2023-04-16T14:35:31;15.07;;;9.43;;
16612;SDS011;8419;52.358;9.752;2023-04-16T14:38:17;10.88;;;9.07;;
16612;SDS011;8419;52.358;9.752;2023-04-16T14:41:03;10.65;;;8.05;;
16612;SDS011;8419;52.358;9.752;2023-04-16T14:43:48;11.77;;;8.95;;
16612;SDS011;8419;52.358;9.752;2023-04-16T14:46:34;10.88;;;8.15;;
16612;SDS011;8419;52.358;9.752;2023-04-16T14:49:21;11.05;;;8.50;;
16612;SDS011;8419;52.358;9.752;2023-04-16T14:52:07;10.82;;;8.75;;
16612;SDS011;8419;52.358;9.752;2023-04-16T14:54:52;11.25;;;8.77;;
16612;SDS011;8419;52.358;9.752;2023-04-16T14:57:40;12.77;;;9.60;;
16612;SDS011;8419;52.358;9.752;2023-04-16T15:00:26;13.80;;;7.87;;
16612;SDS011;8419;52.358;9.752;2023-04-16T15:03:11;10.07;;;8.23;;
16612;SDS011;8419;52.358;9.752;2023-04-16T15:05:57;11.85;;;8.15;;
16612;SDS011;8419;52.358;9.752;2023-04-16T15:08:42;12.30;;;8.38;;
16612;SDS011;8419;52.358;9.752;2023-04-16T15:11:28;11.82;;;9.07;;
16612;SDS011;8419;52.358;9.752;2023-04-16T15:14:13;10.75;;;8.57;;
16612;SDS011;8419;52.358;9.752;2023-04-16T15:17:01;11.80;;;8.75;;
16612;SDS011;8419;52.358;9.752;2023-04-16T15:19:47;11.73;;;9.10;;
16612;SDS011;8419;52.358;9.752;2023-04-16T15:22:32;11.80;;;8.90;;
16612;SDS011;8419;52.358;9.752;2023-04-16T15:25:18;12.80;;;9.18;;
16612;SDS011;8419;52.358;9.752;2023-04-16T15:28:04;11.55;;;8.18;;
16612;SDS011;8419;52.358;9.752;2023-04-16T15:30:49;11.50;;;8.05;;
16612;SDS011;8419;52.358;9.752;2023-04-16T15:33:35;9.88;;;8.15;;
16612;SDS011;8419;52.358;9.752;2023-04-16T15:36:21;10.27;;;8.07;;
16612;SDS011;8419;52.358;9.752;2023-04-16T15:39:07;10.20;;;7.75;;
16612;SDS011;8419;52.358;9.752;2023-04-16T15:41:53;11.65;;;8.68;;
16612;SDS011;8419;52.358;9.752;2023-04-16T15:44:40;10.18;;;8.20;;
16612;SDS011;8419;52.358;9.752;2023-04-16T15:47:25;8.82;;;7.93;;
16612;SDS011;8419;52.358;9.752;2023-04-16T15:50:10;7.68;;;6.87;;
16612;SDS011;8419;52.358;9.752;2023-04-16T15:52:56;9.55;;;7.25;;
16612;SDS011;8419;52.358;9.752;2023-04-16T15:55:41;9.20;;;7.30;;
16612;SDS011;8419;52.358;9.752;2023-04-16T15:58:27;10.93;;;7.07;;
16612;SDS011;8419;52.358;9.752;2023-04-16T16:01:13;8.45;;;6.85;;
16612;SDS011;8419;52.358;9.752;2023-04-16T16:03:59;8.70;;;5.87;;
16612;SDS011;8419;52.358;9.752;2023-04-16T16:06:45;6.22;;;5.62;;
16612;SDS011;8419;52.358;9.752;2023-04-16T16:09:30;7.55;;;6.00;;
16612;SDS011;8419;52.358;9.752;2023-04-16T16:12:17;8.02;;;5.45;;
16612;SDS011;8419;52.358;9.752;2023-04-16T16:15:05;5.50;;;4.95;;
16612;SDS011;8419;52.358;9.752;2023-04-16T16:17:54;6.35;;;5.72;;
16612;SDS011;8419;52.358;9.752;2023-04-16T16:20:41;7.93;;;5.32;;
16612;SDS011;8419;52.358;9.752;2023-04-16T16:23:26;5.60;;;4.62;;
16612;SDS011;8419;52.358;9.752;2023-04-16T16:26:15;7.65;;;5.47;;
16612;SDS011;8419;52.358;9.752;2023-04-16T16:29:02;7.05;;;4.82;;
16612;SDS011;8419;52.358;9.752;2023-04-16T16:31:48;6.50;;;4.37;;
16612;SDS011;8419;52.358;9.752;2023-04-16T16:34:34;5.05;;;4.10;;